Time;durP1;ratioP1;P1;durP2;ratioP2;P2;SDS_P1;SDS_P2;PMS_P1;PMS_P2;Temp;Humidity;BMP_temperature;BMP_pressure;BME280_temperature;BME280_humidity;BME280_pressure;Samples;Min_cycle;Max_cycle;Signal;HPM_P1;HPM_P2
2023/09/13 00:01:39;;;;;;;6.60;4.78;;;;;;;20.10;100.00;94556.22;5056370;28;20028;-83
2023/09/13 00:04:05;;;;;;;8.32;5.28;;;;;;;20.19;100.00;94554.28;5039812;28;20140;-83
2023/09/13 00:06:30;;;;;;;10.95;5.35;;;;;;;20.27;100.00;94550.00;5023193;28;20033;-82
2023/09/13 00:08:55;;;;;;;14.25;4.90;;;;;;;20.26;100.00;94545.78;5055838;28;20060;-82
2023/09/13 00:11:21;;;;;;;11.57;4.97;;;;;;;20.17;100.00;94548.50;5039763;28;20035;-82
2023/09/13 00:13:46;;;;;;;9.07;5.28;;;;;;;20.01;100.00;94553.63;5023135;28;20032;-82
2023/09/13 00:16:12;;;;;;;6.78;4.75;;;;;;;20.12;100.00;94547.91;5055939;28;20123;-82
2023/09/13 00:18:38;;;;;;;17.23;4.78;;;;;;;20.14;100.00;94551.81;5055815;28;20039;-82
2023/09/13 00:21:03;;;;;;;8.50;4.90;;;;;;;20.06;100.00;94555.31;5039057;28;20056;-82
2023/09/13 00:23:29;;;;;;;7.97;4.53;;;;;;;20.17;100.00;94551.16;5040868;28;20430;-82
2023/09/13 00:25:54;;;;;;;15.50;5.13;;;;;;;20.29;100.00;94549.69;5040435;28;20449;-82
2023/09/13 00:28:19;;;;;;;7.18;4.57;;;;;;;20.24;100.00;94552.53;5056921;28;20064;-82
2023/09/13 00:30:45;;;;;;;9.80;4.68;;;;;;;20.22;100.00;94547.53;5041147;28;20131;-82
2023/09/13 00:33:10;;;;;;;8.27;3.92;;;;;;;20.29;99.16;94553.09;5056753;28;20033;-82
2023/09/13 00:35:36;;;;;;;8.60;3.90;;;;;;;20.26;99.56;94550.34;5057068;28;20029;-82
2023/09/13 00:38:02;;;;;;;7.05;4.13;;;;;;;20.28;99.93;94556.09;5057042;28;20028;-82
2023/09/13 00:40:28;;;;;;;10.35;4.18;;;;;;;20.25;100.00;94546.88;5073955;28;20021;-82
2023/09/13 00:42:54;;;;;;;6.65;4.30;;;;;;;20.21;100.00;94545.97;5040590;28;20128;-82
2023/09/13 00:45:20;;;;;;;9.18;4.30;;;;;;;20.13;100.00;94550.25;5057005;28;20056;-82
2023/09/13 00:47:46;;;;;;;9.77;4.13;;;;;;;19.91;100.00;94556.63;5057134;28;20021;-82
2023/09/13 00:50:14;;;;;;;9.20;4.07;;;;;;;19.71;100.00;94550.16;5056769;28;20116;-82
2023/09/13 00:52:41;;;;;;;10.82;4.25;;;;;;;19.67;100.00;94549.25;5056720;28;20029;-82
2023/09/13 00:55:08;;;;;;;12.90;4.57;;;;;;;19.61;100.00;94549.41;5040070;28;20080;-82
2023/09/13 00:57:34;;;;;;;8.30;4.22;;;;;;;19.73;100.00;94554.06;5056403;28;20040;-82
2023/09/13 01:00:00;;;;;;;6.82;4.20;;;;;;;19.70;100.00;94548.63;5056592;28;20031;-82
2023/09/13 01:02:26;;;;;;;7.90;4.32;;;;;;;19.71;100.00;94550.94;5038961;28;20135;-82
2023/09/13 01:04:52;;;;;;;10.40;4.10;;;;;;;19.68;100.00;94542.84;5055017;28;20025;-82
2023/09/13 01:07:18;;;;;;;9.55;4.50;;;;;;;19.48;100.00;94551.22;5037983;28;20534;-82
2023/09/13 01:09:44;;;;;;;7.72;4.45;;;;;;;19.34;100.00;94540.03;5056308;28;20773;-82
2023/09/13 01:12:09;;;;;;;12.95;4.68;;;;;;;19.37;100.00;94544.69;5056216;28;20029;-82
2023/09/13 01:14:35;;;;;;;8.93;4.35;;;;;;;19.38;100.00;94548.13;5037674;28;20028;-82
2023/09/13 01:17:16;;;;;;;9.68;4.32;;;;;;;19.47;100.00;94544.34;5018223;28;20034;-82
2023/09/13 01:20:17;;;;;;;8.40;4.65;;;;;;;19.56;100.00;94544.31;5034987;28;20037;-82
2023/09/13 01:22:42;;;;;;;11.50;4.75;;;;;;;19.40;100.00;94535.31;5047700;28;20041;-82
2023/09/13 01:25:21;;;;;;;6.90;4.28;;;;;;;19.39;100.00;94529.19;5035919;28;20084;-82
2023/09/13 01:28:15;;;;;;;8.13;4.53;;;;;;;19.35;100.00;94522.97;5033766;28;20121;-82
2023/09/13 01:30:42;;;;;;;7.05;4.38;;;;;;;19.45;100.00;94535.13;5035995;28;20036;-82
2023/09/13 01:33:08;;;;;;;9.75;4.00;;;;;;;19.28;100.00;94534.09;5034519;28;20056;-82
2023/09/13 01:35:33;;;;;;;8.02;4.47;;;;;;;19.24;100.00;94521.78;5017552;28;20132;-82
2023/09/13 01:37:59;;;;;;;12.90;4.43;;;;;;;19.26;100.00;94531.00;5017856;28;20061;-82
2023/09/13 01:40:26;;;;;;;10.65;4.78;;;;;;;19.20;100.00;94517.09;5035839;28;20029;-82
2023/09/13 01:42:53;;;;;;;5.57;3.80;;;;;;;19.05;100.00;94523.69;5034602;28;20030;-82
2023/09/13 01:45:19;;;;;;;6.43;4.40;;;;;;;19.11;100.00;94519.00;5034529;28;20066;-82
2023/09/13 01:47:46;;;;;;;6.60;3.75;;;;;;;19.17;100.00;94516.94;5034163;28;20053;-82
2023/09/13 01:50:12;;;;;;;8.05;4.40;;;;;;;19.39;100.00;94513.25;5035615;28;20462;-82
2023/09/13 01:52:38;;;;;;;8.35;4.15;;;;;;;19.29;100.00;94513.63;5034476;28;20033;-82
2023/09/13 01:55:07;;;;;;;6.13;4.22;;;;;;;19.14;100.00;94507.72;5034142;28;20488;-82
2023/09/13 01:57:33;;;;;;;6.15;4.30;;;;;;;19.15;100.00;94505.88;5033838;28;20087;-82
2023/09/13 01:59:58;;;;;;;7.13;3.55;;;;;;;19.19;100.00;94510.22;5035444;28;20449;-82
2023/09/13 02:02:24;;;;;;;8.02;3.92;;;;;;;19.04;100.00;94500.91;5018278;28;20052;-82
2023/09/13 02:04:49;;;;;;;7.97;3.70;;;;;;;19.15;100.00;94504.00;5050569;28;20044;-83
2023/09/13 02:07:16;;;;;;;7.38;3.90;;;;;;;19.12;99.95;94501.19;5034849;28;20336;-82
2023/09/13 02:09:43;;;;;;;5.93;4.10;;;;;;;19.21;99.32;94501.94;5034523;28;20079;-82
2023/09/13 02:12:12;;;;;;;8.63;3.95;;;;;;;19.27;98.57;94498.00;5050920;28;20033;-82
2023/09/13 02:14:41;;;;;;;8.10;4.38;;;;;;;19.22;100.00;94500.81;5018895;28;20131;-82
2023/09/13 02:17:08;;;;;;;9.10;4.82;;;;;;;19.18;99.01;94497.25;5017464;28;20040;-82
2023/09/13 02:19:35;;;;;;;7.22;4.05;;;;;;;19.09;97.85;94494.63;5017832;28;20037;-82
2023/09/13 02:22:00;;;;;;;7.32;3.90;;;;;;;19.10;98.53;94496.19;5017378;28;20033;-82
2023/09/13 02:24:25;;;;;;;8.55;4.50;;;;;;;19.04;99.89;94503.56;5017419;28;20468;-82
2023/09/13 02:26:57;;;;;;;6.72;4.38;;;;;;;18.99;99.13;94494.94;5032909;28;20362;-82
2023/09/13 02:29:23;;;;;;;8.65;4.00;;;;;;;18.98;99.25;94499.50;5034423;28;20041;-82
2023/09/13 02:31:49;;;;;;;8.18;4.22;;;;;;;18.98;100.00;94498.69;5034060;28;20056;-82
2023/09/13 02:34:14;;;;;;;8.68;4.15;;;;;;;19.09;100.00;94501.84;5033735;28;20040;-82
2023/09/13 02:36:39;;;;;;;8.68;4.47;;;;;;;18.88;100.00;94497.97;5033823;28;20087;-82
2023/09/13 02:39:05;;;;;;;7.10;3.80;;;;;;;18.93;100.00;94497.00;5033219;28;20349;-82
2023/09/13 02:41:31;;;;;;;9.23;4.40;;;;;;;18.99;98.22;94494.94;5020645;28;20030;-82
2023/09/13 02:43:56;;;;;;;6.43;3.75;;;;;;;19.13;97.93;94498.22;5037768;28;20140;-82
2023/09/13 02:46:22;;;;;;;6.55;3.72;;;;;;;19.32;97.53;94502.38;5037769;28;20120;-82
2023/09/13 02:48:48;;;;;;;7.78;4.40;;;;;;;19.18;97.90;94489.28;5020740;28;20029;-82
2023/09/13 02:51:14;;;;;;;6.28;4.10;;;;;;;19.10;98.41;94490.88;5021519;28;20036;-82
2023/09/13 02:53:40;;;;;;;11.27;3.92;;;;;;;19.21;96.04;94491.31;5041511;28;20433;-82
2023/09/13 02:56:06;;;;;;;7.18;4.25;;;;;;;19.09;97.54;94493.88;5059277;28;20075;-82
2023/09/13 02:58:32;;;;;;;8.80;4.10;;;;;;;19.21;95.41;94491.31;5058557;28;20029;-82
2023/09/13 03:00:58;;;;;;;6.60;3.55;;;;;;;19.25;92.40;94486.94;5059152;28;20342;-82
2023/09/13 03:03:24;;;;;;;8.35;4.60;;;;;;;19.10;92.35;94480.25;5058875;28;20119;-82
2023/09/13 03:05:49;;;;;;;6.80;4.13;;;;;;;19.03;92.28;94485.31;5026044;28;20036;-82
2023/09/13 03:08:14;;;;;;;6.38;3.70;;;;;;;19.17;95.33;94495.69;5058102;28;20033;-82
2023/09/13 03:10:40;;;;;;;10.15;4.20;;;;;;;18.72;96.02;94491.59;5058371;28;20461;-82
2023/09/13 03:13:05;;;;;;;5.85;4.10;;;;;;;18.40;100.00;94488.38;5058785;28;20036;-82
2023/09/13 03:15:34;;;;;;;7.90;4.32;;;;;;;18.25;100.00;94485.09;5042125;28;20025;-82
2023/09/13 03:18:00;;;;;;;9.85;3.95;;;;;;;18.22;100.00;94486.53;5058438;28;20029;-82
2023/09/13 03:20:26;;;;;;;8.35;3.65;;;;;;;18.42;99.77;94481.66;5058612;28;20457;-82
2023/09/13 03:22:54;;;;;;;8.35;4.25;;;;;;;18.50;99.00;94478.19;5075503;28;20025;-82
2023/09/13 03:25:19;;;;;;;13.90;4.53;;;;;;;18.64;100.00;94479.91;5058420;28;20343;-82
2023/09/13 03:27:47;;;;;;;7.78;4.00;;;;;;;18.55;98.58;94479.16;5058521;28;20032;-82
2023/09/13 03:30:13;;;;;;;5.65;3.95;;;;;;;18.53;100.00;94473.38;5058414;28;20377;-82
2023/09/13 03:32:38;;;;;;;9.30;4.18;;;;;;;18.35;100.00;94465.44;5058510;28;20036;-82
2023/09/13 03:35:05;;;;;;;6.40;3.63;;;;;;;18.49;100.00;94478.53;5058313;28;20068;-82
2023/09/13 03:37:32;;;;;;;8.55;4.25;;;;;;;18.67;100.00;94473.19;5059002;28;20354;-82
2023/09/13 03:39:58;;;;;;;6.93;3.97;;;;;;;18.75;99.69;94475.06;5058297;28;20025;-82
2023/09/13 03:42:23;;;;;;;6.82;4.13;;;;;;;18.71;100.00;94477.56;5074814;28;20032;-82
2023/09/13 03:44:49;;;;;;;7.55;4.28;;;;;;;18.82;99.60;94472.69;5041753;28;20032;-82
2023/09/13 03:47:14;;;;;;;8.15;4.22;;;;;;;18.69;100.00;94463.81;5058820;28;20050;-82
2023/09/13 03:49:40;;;;;;;7.07;4.13;;;;;;;18.95;100.00;94460.31;5059231;28;20039;-82
2023/09/13 03:52:05;;;;;;;9.20;3.75;;;;;;;18.91;100.00;94462.03;5057541;28;20074;-82
2023/09/13 03:54:32;;;;;;;7.07;4.28;;;;;;;19.05;100.00;94465.28;5059142;28;20075;-82
2023/09/13 03:56:58;;;;;;;12.55;4.55;;;;;;;18.93;97.80;94465.94;5057827;28;20024;-82
2023/09/13 03:59:23;;;;;;;6.38;4.07;;;;;;;18.91;99.23;94467.34;5057893;28;20025;-82
2023/09/13 04:01:49;;;;;;;6.38;4.05;;;;;;;18.69;100.00;94466.47;5041145;28;20029;-82
2023/09/13 04:04:15;;;;;;;9.82;4.20;;;;;;;18.79;100.00;94468.81;5058083;28;20121;-82
2023/09/13 04:06:40;;;;;;;8.60;3.72;;;;;;;18.81;97.06;94468.47;5057749;28;20052;-82
2023/09/13 04:09:09;;;;;;;5.97;4.10;;;;;;;18.76;98.44;94461.44;5057569;28;20060;-82
2023/09/13 04:11:34;;;;;;;8.25;4.25;;;;;;;19.02;98.23;94467.81;5041463;28;20358;-82
2023/09/13 04:14:00;;;;;;;9.07;4.00;;;;;;;19.25;100.00;94472.84;5057966;28;20036;-82
2023/09/13 04:16:26;;;;;;;6.80;3.80;;;;;;;19.30;99.84;94478.78;5057463;28;20133;-82
2023/09/13 04:18:51;;;;;;;10.80;4.45;;;;;;;19.31;99.64;94484.88;5057233;28;20033;-82
2023/09/13 04:21:16;;;;;;;11.27;3.92;;;;;;;19.34;100.00;94495.63;5057183;28;20106;-82
2023/09/13 04:23:42;;;;;;;9.98;4.15;;;;;;;19.14;100.00;94496.34;5057247;28;20071;-82
2023/09/13 04:26:07;;;;;;;5.75;3.70;;;;;;;19.11;100.00;94503.06;5057428;28;20029;-82
2023/09/13 04:28:34;;;;;;;10.55;4.53;;;;;;;19.15;100.00;94503.22;5057059;28;20040;-82
2023/09/13 04:30:59;;;;;;;11.18;4.68;;;;;;;18.98;100.00;94494.19;5058095;28;20055;-82
2023/09/13 04:33:47;;;;;;;7.97;4.05;;;;;;;19.16;100.00;94504.78;5057266;28;20063;-83
2023/09/13 04:36:13;;;;;;;7.05;4.38;;;;;;;19.23;100.00;94499.75;5057044;28;20426;-83
2023/09/13 04:38:38;;;;;;;6.47;4.28;;;;;;;19.60;100.00;94509.91;5056935;28;20036;-83
2023/09/13 04:41:05;;;;;;;5.55;3.47;;;;;;;19.62;93.75;94511.13;5057019;28;20037;-83
2023/09/13 04:43:30;;;;;;;9.68;3.90;;;;;;;19.70;87.95;94500.78;5057127;28;20323;-83
2023/09/13 04:45:56;;;;;;;7.50;3.70;;;;;;;19.76;95.10;94504.78;5056602;28;20035;-83
2023/09/13 04:48:21;;;;;;;7.22;3.60;;;;;;;19.58;92.02;94514.72;5040320;28;20135;-83
2023/09/13 04:50:47;;;;;;;12.10;3.60;;;;;;;19.57;86.34;94513.19;5040225;28;20024;-82
2023/09/13 04:53:12;;;;;;;5.88;3.95;;;;;;;19.89;72.04;94513.63;5056496;28;20033;-84
2023/09/13 04:55:42;;;;;;;8.10;3.53;;;;;;;20.34;66.00;94510.34;5056695;28;20036;-83
2023/09/13 04:58:07;;;;;;;6.65;3.13;;;;;;;20.67;60.68;94514.16;5056631;28;20346;-83
2023/09/13 05:00:32;;;;;;;7.93;3.70;;;;;;;20.87;57.77;94522.44;5056611;28;20029;-82
2023/09/13 05:02:58;;;;;;;5.95;3.35;;;;;;;21.15;55.21;94519.91;5055132;28;20457;-83
2023/09/13 05:05:24;;;;;;;7.15;3.33;;;;;;;21.29;52.99;94524.94;5057662;28;20025;-83
2023/09/13 05:07:49;;;;;;;6.32;3.33;;;;;;;21.56;51.43;94528.06;5057672;28;20029;-83
2023/09/13 05:10:16;;;;;;;4.25;2.60;;;;;;;21.49;51.37;94535.81;5056511;28;20524;-82
2023/09/13 05:12:41;;;;;;;4.03;3.05;;;;;;;21.46;51.30;94539.16;5056407;28;20028;-82
2023/09/13 05:15:07;;;;;;;6.80;4.03;;;;;;;21.60;48.46;94533.53;5048385;28;20039;-83
2023/09/13 05:17:32;;;;;;;3.58;2.80;;;;;;;21.66;46.71;94540.19;5036220;28;20339;-83
2023/09/13 05:19:58;;;;;;;5.95;3.55;;;;;;;21.90;45.60;94533.31;5037488;28;20043;-83
2023/09/13 05:22:23;;;;;;;7.88;3.58;;;;;;;22.02;45.22;94543.16;5052319;28;20041;-83
2023/09/13 05:24:49;;;;;;;5.38;3.25;;;;;;;21.91;45.33;94542.06;5036541;28;20075;-82
2023/09/13 05:27:15;;;;;;;6.25;3.50;;;;;;;21.92;44.59;94548.94;5051740;28;20064;-82
2023/09/13 05:29:41;;;;;;;4.85;3.25;;;;;;;21.80;45.80;94545.19;5035969;28;20441;-82
2023/09/13 05:32:06;;;;;;;5.32;3.05;;;;;;;21.78;45.54;94539.41;5036208;28;20025;-83
2023/09/13 05:34:31;;;;;;;9.27;3.60;;;;;;;21.88;44.30;94546.97;5019859;28;20041;-83
2023/09/13 05:36:57;;;;;;;5.47;3.28;;;;;;;21.82;45.08;94553.66;5035807;28;20025;-82
2023/09/13 05:39:22;;;;;;;6.38;3.67;;;;;;;21.87;44.97;94552.63;5035939;28;20473;-83
2023/09/13 05:41:49;;;;;;;5.82;3.42;;;;;;;21.88;45.26;94552.28;5035785;28;20056;-83
2023/09/13 05:44:20;;;;;;;4.75;2.83;;;;;;;21.87;45.39;94547.28;5036043;28;20132;-83
2023/09/13 05:46:46;;;;;;;5.97;3.25;;;;;;;21.78;45.68;94558.06;5036484;28;20029;-83
2023/09/13 05:49:11;;;;;;;6.35;3.05;;;;;;;21.84;46.09;94554.09;5037034;28;20040;-83
2023/09/13 05:51:37;;;;;;;7.20;3.42;;;;;;;21.81;46.11;94554.75;5037142;28;20064;-83
2023/09/13 05:54:03;;;;;;;5.60;3.60;;;;;;;21.63;50.75;94556.06;5036950;28;20328;-83
2023/09/13 05:56:29;;;;;;;7.57;3.58;;;;;;;21.64;47.79;94554.94;5035901;28;20037;-83
2023/09/13 05:58:55;;;;;;;5.60;3.35;;;;;;;21.63;46.52;94556.06;5019441;28;20075;-83
2023/09/13 06:01:22;;;;;;;7.28;3.60;;;;;;;21.31;52.42;94562.69;5035679;28;20469;-83
2023/09/13 06:03:48;;;;;;;8.82;3.40;;;;;;;21.51;48.40;94570.91;5035821;28;20022;-83
2023/09/13 06:06:14;;;;;;;6.22;3.28;;;;;;;21.46;50.96;94568.47;5036846;28;20040;-83
2023/09/13 06:08:39;;;;;;;7.38;4.00;;;;;;;20.91;62.43;94560.59;5036701;28;20191;-83
2023/09/13 06:11:05;;;;;;;6.63;3.95;;;;;;;20.77;56.76;94561.63;5035640;28;20087;-83
2023/09/13 06:13:31;;;;;;;5.88;4.00;;;;;;;19.97;61.31;94573.22;5035316;28;20040;-83
2023/09/13 06:15:57;;;;;;;6.80;3.70;;;;;;;19.32;99.40;94582.81;5018817;28;20044;-83
2023/09/13 06:18:23;;;;;;;6.68;3.92;;;;;;;19.17;84.26;94564.75;5019049;28;20131;-82
2023/09/13 06:20:48;;;;;;;10.90;4.63;;;;;;;19.22;100.00;94575.19;5052062;28;20431;-83
2023/09/13 06:23:37;;;;;;;7.20;4.30;;;;;;;19.12;98.89;94589.59;5035524;28;20030;-83
2023/09/13 06:26:03;;;;;;;6.97;4.18;;;;;;;19.01;100.00;94591.81;5037473;28;20070;-83
2023/09/13 06:28:29;;;;;;;5.93;4.00;;;;;;;18.78;97.22;94585.88;5036500;28;20453;-83
2023/09/13 06:30:56;;;;;;;9.60;4.30;;;;;;;18.41;100.00;94598.69;5036410;28;20350;-82
2023/09/13 06:33:22;;;;;;;5.68;4.22;;;;;;;18.85;100.00;94601.34;5018832;28;20347;-83
2023/09/13 06:35:49;;;;;;;6.40;3.80;;;;;;;18.34;100.00;94607.88;5036369;28;20029;-83
2023/09/13 06:38:15;;;;;;;5.07;3.92;;;;;;;18.86;100.00;94614.28;5036429;28;20119;-83
2023/09/13 06:40:43;;;;;;;7.38;4.65;;;;;;;18.27;100.00;94604.91;5018672;28;20494;-82
2023/09/13 06:43:10;;;;;;;6.88;4.07;;;;;;;18.14;98.12;94621.72;5035341;28;20022;-82
2023/09/13 06:45:35;;;;;;;7.57;4.38;;;;;;;18.33;100.00;94622.25;5035255;28;20025;-83
2023/09/13 06:48:01;;;;;;;7.05;4.18;;;;;;;18.06;100.00;94637.31;5036276;28;20025;-82
2023/09/13 06:50:26;;;;;;;9.20;5.30;;;;;;;17.52;100.00;94632.88;5035359;28;20136;-83
2023/09/13 06:52:52;;;;;;;10.85;7.18;;;;;;;16.98;100.00;94621.47;5035108;28;20439;-82
2023/09/13 06:55:17;;;;;;;11.18;5.97;;;;;;;16.89;100.00;94624.88;5035241;28;20132;-83
2023/09/13 06:57:43;;;;;;;9.07;5.63;;;;;;;16.92;100.00;94621.59;5033888;28;20455;-82
2023/09/13 07:00:10;;;;;;;8.73;4.88;;;;;;;17.05;100.00;94621.88;5035566;28;20044;-83
2023/09/13 07:02:36;;;;;;;9.35;5.40;;;;;;;17.16;100.00;94633.00;5035297;28;20040;-83
2023/09/13 07:05:03;;;;;;;9.57;6.07;;;;;;;17.22;100.00;94626.50;5035034;28;20056;-83
2023/09/13 07:07:28;;;;;;;9.75;5.38;;;;;;;17.03;100.00;94613.47;5019122;28;20051;-83
2023/09/13 07:09:54;;;;;;;7.78;4.38;;;;;;;17.25;100.00;94615.31;5034945;28;20061;-83
2023/09/13 07:12:20;;;;;;;9.50;4.80;;;;;;;17.69;100.00;94617.38;5035197;28;20029;-83
2023/09/13 07:14:48;;;;;;;7.55;4.10;;;;;;;18.02;100.00;94632.91;5034512;28;20045;-83
2023/09/13 07:17:18;;;;;;;10.70;5.25;;;;;;;18.15;100.00;94634.69;5035085;28;20033;-83
2023/09/13 07:19:45;;;;;;;10.52;5.30;;;;;;;18.33;100.00;94637.38;5034982;28;20033;-86
2023/09/13 07:22:10;;;;;;;16.55;6.80;;;;;;;18.29;100.00;94641.72;5035438;28;20036;-82
2023/09/13 07:24:36;;;;;;;10.35;6.25;;;;;;;18.13;100.00;94634.22;5035128;28;20029;-82
2023/09/13 07:27:01;;;;;;;10.27;6.40;;;;;;;18.27;100.00;94622.69;5037509;28;20036;-83
2023/09/13 07:29:27;;;;;;;9.80;5.03;;;;;;;18.52;100.00;94610.53;5039017;28;20036;-82
2023/09/13 07:31:52;;;;;;;10.45;4.78;;;;;;;18.81;100.00;94595.09;5039479;28;20025;-82
2023/09/13 07:34:18;;;;;;;7.43;4.95;;;;;;;18.93;100.00;94582.75;5039409;28;20472;-82
2023/09/13 07:36:43;;;;;;;8.30;5.25;;;;;;;19.30;100.00;94585.03;5038592;28;20060;-82
2023/09/13 07:39:10;;;;;;;13.65;5.20;;;;;;;19.05;100.00;94598.03;5039506;28;20027;-83
2023/09/13 07:41:35;;;;;;;10.75;5.03;;;;;;;18.64;100.00;94600.09;5055036;28;20025;-85
2023/09/13 07:44:01;;;;;;;6.18;4.32;;;;;;;18.99;100.00;94596.66;5021884;28;20429;-84
2023/09/13 07:46:26;;;;;;;7.43;4.40;;;;;;;18.73;100.00;94605.41;5038101;28;20112;-85
2023/09/13 07:48:52;;;;;;;7.13;5.07;;;;;;;19.40;100.00;94607.03;5037775;28;20079;-85
2023/09/13 07:51:17;;;;;;;7.82;5.05;;;;;;;17.63;100.00;94604.25;5039257;28;20387;-85
2023/09/13 07:53:44;;;;;;;8.38;4.50;;;;;;;17.78;100.00;94594.31;5038007;28;20373;-84
2023/09/13 07:56:09;;;;;;;9.55;4.75;;;;;;;17.67;100.00;94577.94;5039284;28;20062;-85
2023/09/13 07:58:35;;;;;;;6.03;4.75;;;;;;;17.66;100.00;94574.50;5037821;28;20025;-84
2023/09/13 08:01:01;;;;;;;9.35;5.65;;;;;;;18.34;100.00;94585.88;5038097;28;20513;-85
2023/09/13 08:03:27;;;;;;;8.32;4.93;;;;;;;18.29;100.00;94584.19;5038595;28;20385;-85
2023/09/13 08:05:56;;;;;;;10.85;4.93;;;;;;;17.89;100.00;94577.06;5037790;28;20033;-85
2023/09/13 08:08:25;;;;;;;6.85;3.95;;;;;;;18.61;100.00;94582.16;5021754;28;20033;-85
2023/09/13 08:10:51;;;;;;;9.23;4.25;;;;;;;19.09;100.00;94578.84;5038375;28;20116;-85
2023/09/13 08:13:23;;;;;;;11.50;4.95;;;;;;;19.36;100.00;94591.72;5037644;28;20346;-85
2023/09/13 08:15:49;;;;;;;8.73;4.95;;;;;;;19.54;100.00;94599.66;5037911;28;20053;-85
2023/09/13 08:18:15;;;;;;;6.35;4.18;;;;;;;19.67;100.00;94603.19;5037597;28;20036;-86
2023/09/13 08:20:42;;;;;;;7.80;4.63;;;;;;;18.42;100.00;94601.03;5037811;28;20033;-84
2023/09/13 08:23:07;;;;;;;12.27;4.22;;;;;;;18.51;100.00;94612.44;5038628;28;20099;-85
2023/09/13 08:25:33;;;;;;;9.48;3.72;;;;;;;19.11;100.00;94609.28;5020933;28;20034;-85
2023/09/13 08:27:59;;;;;;;7.75;3.63;;;;;;;19.62;100.00;94611.34;5038494;28;20117;-85
2023/09/13 08:30:24;;;;;;;10.55;3.90;;;;;;;19.42;100.00;94605.59;5037951;28;20029;-85
2023/09/13 08:32:50;;;;;;;7.65;4.10;;;;;;;19.15;100.00;94598.81;5037887;28;20045;-85
2023/09/13 08:35:15;;;;;;;13.40;3.60;;;;;;;19.50;100.00;94598.69;5037078;28;20060;-85
2023/09/13 08:37:40;;;;;;;6.53;4.25;;;;;;;20.22;100.00;94610.59;5038243;28;20037;-85
2023/09/13 08:40:06;;;;;;;7.50;4.05;;;;;;;20.42;100.00;94611.72;5053250;28;20350;-85
2023/09/13 08:42:33;;;;;;;4.72;3.60;;;;;;;20.37;100.00;94614.56;5038239;28;20120;-85
2023/09/13 08:45:00;;;;;;;6.57;4.38;;;;;;;20.83;100.00;94620.06;5037176;28;20033;-85
2023/09/13 08:47:31;;;;;;;8.50;4.53;;;;;;;19.81;100.00;94618.94;5038187;28;20033;-85
2023/09/13 08:49:58;;;;;;;9.90;4.38;;;;;;;20.70;100.00;94619.19;5032058;28;20135;-85
2023/09/13 08:52:25;;;;;;;10.13;4.70;;;;;;;21.13;100.00;94604.72;5056782;28;20035;-86
2023/09/13 08:54:51;;;;;;;5.50;3.80;;;;;;;21.02;100.00;94619.56;5056795;28;20418;-85
2023/09/13 08:57:18;;;;;;;7.65;4.05;;;;;;;21.00;100.00;94613.78;5056988;28;20418;-86
2023/09/13 08:59:43;;;;;;;7.15;3.50;;;;;;;21.38;100.00;94614.69;5056765;28;20354;-85
2023/09/13 09:02:14;;;;;;;4.68;3.33;;;;;;;21.83;100.00;94611.22;5040308;28;20040;-85
2023/09/13 09:04:40;;;;;;;6.00;3.60;;;;;;;22.15;100.00;94619.41;5057858;28;20108;-85
2023/09/13 09:07:06;;;;;;;7.82;3.15;;;;;;;22.40;100.00;94630.06;5039489;28;20418;-86
2023/09/13 09:09:32;;;;;;;6.70;3.45;;;;;;;22.82;100.00;94628.22;5056614;28;20032;-86
2023/09/13 09:12:00;;;;;;;6.38;3.72;;;;;;;23.06;100.00;94631.88;5040188;28;20079;-86
2023/09/13 09:14:32;;;;;;;11.85;3.60;;;;;;;22.07;100.00;94620.28;5056498;28;20033;-86
2023/09/13 09:17:02;;;;;;;7.95;3.25;;;;;;;22.91;100.00;94620.81;5039711;28;20131;-86
2023/09/13 09:19:29;;;;;;;4.90;3.03;;;;;;;23.27;100.00;94650.41;5056302;28;20033;-86
2023/09/13 09:21:58;;;;;;;5.32;3.00;;;;;;;23.32;100.00;94654.75;5056397;28;20033;-86
2023/09/13 09:24:23;;;;;;;11.10;3.33;;;;;;;22.46;100.00;94650.06;5056634;28;20493;-85
2023/09/13 09:26:49;;;;;;;6.30;3.88;;;;;;;22.93;100.00;94642.63;5056096;28;20061;-86
2023/09/13 09:29:16;;;;;;;6.68;3.75;;;;;;;23.16;100.00;94650.09;5056140;28;20033;-86
2023/09/13 09:31:42;;;;;;;8.38;4.20;;;;;;;23.65;100.00;94654.44;5056346;28;20040;-86
2023/09/13 09:34:09;;;;;;;9.55;3.78;;;;;;;23.27;100.00;94650.41;5056056;28;20037;-86
2023/09/13 09:36:40;;;;;;;4.53;2.80;;;;;;;22.82;100.00;94649.56;5058048;28;20056;-86
2023/09/13 09:39:06;;;;;;;8.13;3.63;;;;;;;23.30;100.00;94650.50;5055620;28;20039;-86
2023/09/13 09:41:32;;;;;;;7.45;2.97;;;;;;;23.28;100.00;94657.31;5056080;28;20357;-86
2023/09/13 09:43:58;;;;;;;8.68;4.15;;;;;;;23.16;100.00;94660.78;5057224;28;20108;-86
2023/09/13 09:46:24;;;;;;;5.10;2.92;;;;;;;22.87;100.00;94657.34;5039206;28;20067;-86
2023/09/13 09:48:53;;;;;;;8.43;2.85;;;;;;;22.56;100.00;94656.84;5056425;28;20536;-86
2023/09/13 09:51:19;;;;;;;6.38;2.92;;;;;;;22.17;100.00;94657.19;5057096;28;20067;-85
2023/09/13 09:53:44;;;;;;;7.40;2.95;;;;;;;22.77;100.00;94653.25;5055760;28;20091;-86
2023/09/13 09:56:16;;;;;;;6.00;3.47;;;;;;;23.11;100.00;94648.44;5055443;28;20042;-86
2023/09/13 09:58:41;;;;;;;7.05;3.92;;;;;;;23.41;100.00;94647.34;5055653;28;20044;-86
2023/09/13 10:01:07;;;;;;;10.55;3.88;;;;;;;23.51;100.00;94636.13;5056802;28;20025;-85
2023/09/13 10:03:34;;;;;;;6.93;3.53;;;;;;;23.20;100.00;94642.94;5041626;28;20025;-85
2023/09/13 10:06:08;;;;;;;5.60;3.13;;;;;;;22.94;100.00;94636.16;5040182;28;20024;-86
2023/09/13 10:09:06;;;;;;;7.40;3.90;;;;;;;23.02;100.00;94653.16;5055854;28;20032;-84
2023/09/13 10:11:32;;;;;;;7.53;3.20;;;;;;;23.25;100.00;94647.28;5055693;28;20029;-84
2023/09/13 10:13:57;;;;;;;5.50;3.13;;;;;;;23.63;100.00;94651.34;5038745;28;20354;-83
2023/09/13 10:16:30;;;;;;;6.43;2.97;;;;;;;24.42;100.00;94648.97;5055987;28;20341;-84
2023/09/13 10:18:58;;;;;;;7.93;3.10;;;;;;;24.73;100.00;94654.59;5055060;28;20128;-84
2023/09/13 10:21:26;;;;;;;8.20;3.50;;;;;;;24.13;100.00;94651.78;5055446;28;20028;-84
2023/09/13 10:24:02;;;;;;;6.93;3.63;;;;;;;24.56;100.00;94656.53;5039046;28;20110;-84
2023/09/13 10:26:30;;;;;;;8.43;3.50;;;;;;;24.26;100.00;94657.03;5041274;28;20040;-84
2023/09/13 10:28:59;;;;;;;10.70;3.80;;;;;;;24.23;100.00;94663.06;5019036;28;20124;-83
2023/09/13 10:31:28;;;;;;;7.75;3.60;;;;;;;24.89;100.00;94671.41;5035303;28;20115;-83
2023/09/13 10:33:59;;;;;;;5.25;3.25;;;;;;;24.32;100.00;94660.22;5035569;28;20033;-84
2023/09/13 10:36:32;;;;;;;7.65;3.40;;;;;;;24.19;100.00;94654.19;5035445;28;20116;-84
2023/09/13 10:39:11;;;;;;;7.35;3.30;;;;;;;24.26;100.00;94651.69;5036053;28;20029;-84
2023/09/13 10:41:43;;;;;;;6.28;3.05;;;;;;;25.11;96.33;94656.53;5035332;28;20029;-84
2023/09/13 10:44:10;;;;;;;7.55;2.83;;;;;;;26.04;95.00;94660.41;5019157;28;20120;-83
2023/09/13 10:46:36;;;;;;;8.00;3.05;;;;;;;25.82;83.65;94655.50;5035220;28;20029;-83
2023/09/13 10:49:02;;;;;;;5.28;2.95;;;;;;;25.62;92.20;94651.31;5035139;28;20032;-83
2023/09/13 10:51:28;;;;;;;17.58;2.97;;;;;;;25.73;79.23;94663.00;5035045;28;20108;-83
2023/09/13 10:53:54;;;;;;;7.90;3.03;;;;;;;25.94;93.02;94657.22;5035091;28;20034;-83
2023/09/13 10:56:22;;;;;;;11.48;3.42;;;;;;;25.99;84.49;94648.09;5018908;28;20032;-83
2023/09/13 10:58:49;;;;;;;6.93;3.25;;;;;;;26.63;82.49;94654.78;5034870;28;20026;-83
2023/09/13 11:01:15;;;;;;;7.00;3.20;;;;;;;27.48;78.63;94658.09;5036299;28;20025;-83
2023/09/13 11:03:42;;;;;;;5.90;2.85;;;;;;;27.24;77.07;94663.59;5039367;28;20048;-83
2023/09/13 11:06:08;;;;;;;8.10;2.83;;;;;;;26.92;73.33;94657.88;5039051;28;20349;-83
2023/09/13 11:08:34;;;;;;;13.68;3.30;;;;;;;26.73;68.06;94651.44;5022468;28;20029;-83
2023/09/13 11:11:16;;;;;;;5.97;2.92;;;;;;;27.20;67.26;94652.03;5040049;28;20086;-84
2023/09/13 11:13:53;;;;;;;5.72;2.92;;;;;;;27.86;67.71;94645.38;5039661;28;20029;-83
2023/09/13 11:16:23;;;;;;;6.85;3.08;;;;;;;28.39;61.85;94637.28;5036633;28;20075;-84
2023/09/13 11:18:51;;;;;;;6.65;2.90;;;;;;;27.75;60.19;94631.84;5073194;28;20029;-83
2023/09/13 11:21:24;;;;;;;5.10;2.35;;;;;;;28.17;59.76;94621.00;5058561;28;20033;-83
2023/09/13 11:23:52;;;;;;;10.68;3.50;;;;;;;26.13;67.76;94620.69;5059804;28;20028;-84
2023/09/13 11:26:46;;;;;;;9.50;3.20;;;;;;;27.05;63.47;94629.59;5058439;28;20025;-83